createdAt,value
2019-05-07T00:01:14.931Z,89.78
2019-05-07T00:03:48.978Z,89.62
2019-05-07T00:06:24.902Z,89.29
2019-05-07T00:08:58.547Z,89.96
2019-05-07T00:11:33.129Z,90.52
2019-05-07T00:14:08.123Z,89.98
2019-05-07T00:16:43.447Z,90.42
2019-05-07T00:19:17.682Z,90.08
2019-05-07T00:21:52.800Z,90.42
2019-05-07T00:24:26.675Z,90.36
2019-05-07T00:27:03.455Z,90.27
2019-05-07T00:29:53.363Z,90.13
2019-05-07T00:32:28.158Z,90.56
2019-05-07T00:35:05.966Z,90.45
2019-05-07T00:37:46.014Z,90.71
2019-05-07T00:40:34.857Z,91.07
2019-05-07T00:43:17.922Z,91.66
2019-05-07T00:45:59.052Z,92.21
2019-05-07T00:48:33.929Z,92.51
2019-05-07T00:51:25.297Z,92.77
2019-05-07T00:54:02.838Z,92.51
2019-05-07T00:56:37.057Z,92.73
2019-05-07T00:59:13.090Z,91.99
2019-05-07T01:01:47.311Z,91.81
2019-05-07T01:04:22.944Z,91.94
2019-05-07T01:06:56.944Z,92.49
2019-05-07T01:09:32.371Z,92.08
2019-05-07T01:12:06.442Z,91.82
2019-05-07T01:14:41.982Z,92.26
2019-05-07T01:17:22.503Z,93.03
2019-05-07T01:19:57.078Z,93.22
2019-05-07T01:22:33.013Z,92.47
2019-05-07T01:25:07.975Z,92.64
2019-05-07T01:27:42.668Z,93.23
2019-05-07T01:30:17.142Z,93.03
2019-05-07T01:33:04.013Z,92.88
2019-05-07T01:35:55.903Z,92.38
2019-05-07T01:38:29.919Z,93.21
2019-05-07T01:41:05.154Z,93.23
2019-05-07T01:43:40.105Z,93.17
2019-05-07T01:46:15.841Z,93.05
2019-05-07T01:48:49.443Z,92.73
2019-05-07T01:51:23.035Z,92.93
2019-05-07T01:53:56.784Z,93.15
2019-05-07T01:56:30.459Z,93.61
2019-05-07T01:59:05.186Z,93.69
2019-05-07T02:01:39.271Z,93.92
2019-05-07T02:04:25.040Z,93.15
2019-05-07T02:07:16.501Z,92.55
2019-05-07T02:10:19.053Z,92.52
2019-05-07T02:12:52.906Z,93.12
2019-05-07T02:15:26.784Z,93.35
2019-05-07T02:18:02.110Z,93.52
2019-05-07T02:20:35.865Z,92.95
2019-05-07T02:23:12.650Z,92.96
2019-05-07T02:25:48.360Z,93.37
2019-05-07T02:28:22.324Z,94.00
2019-05-07T02:30:58.322Z,94.24
2019-05-07T02:33:35.079Z,94.31
2019-05-07T02:36:08.841Z,93.91
2019-05-07T02:38:57.656Z,93.88
2019-05-07T02:41:35.005Z,93.30
2019-05-07T02:44:09.018Z,93.69
2019-05-07T02:47:05.798Z,94.01
2019-05-07T02:49:53.817Z,93.90
2019-05-07T02:53:03.909Z,93.66
2019-05-07T02:55:44.725Z,93.85
2019-05-07T02:58:18.439Z,93.82
2019-05-07T03:00:53.794Z,93.94
2019-05-07T03:03:29.424Z,94.40
2019-05-07T03:06:03.467Z,94.60
2019-05-07T03:08:37.409Z,95.01
2019-05-07T03:11:14.170Z,95.39
2019-05-07T03:13:48.755Z,95.63
2019-05-07T03:16:38.103Z,95.74
2019-05-07T03:18:57.861Z,95.96
2019-05-07T03:21:53.824Z,96.13
2019-05-07T03:24:55.806Z,96.00
2019-05-07T03:27:34.168Z,96.13
2019-05-07T03:30:44.991Z,96.51
2019-05-07T03:33:26.184Z,96.38
2019-05-07T03:36:06.283Z,96.16
2019-05-07T03:38:37.206Z,96.20
2019-05-07T03:41:12.910Z,96.06
2019-05-07T03:43:46.236Z,96.36
2019-05-07T03:46:23.224Z,96.32
2019-05-07T03:48:57.554Z,96.53
2019-05-07T03:51:34.274Z,96.66
2019-05-07T03:54:09.380Z,96.48
2019-05-07T03:56:43.637Z,96.74
2019-05-07T03:59:17.586Z,96.87
2019-05-07T04:01:53.842Z,96.88
2019-05-07T04:04:27.689Z,96.57
2019-05-07T04:07:03.362Z,95.96
2019-05-07T04:09:37.195Z,95.51
2019-05-07T04:12:13.136Z,95.60
2019-05-07T04:14:48.091Z,95.46
2019-05-07T04:17:25.765Z,94.74
2019-05-07T04:19:57.408Z,93.83
2019-05-07T04:22:34.559Z,93.71
2019-05-07T04:25:34.593Z,93.84
2019-05-07T04:28:29.130Z,92.19
2019-05-07T04:31:03.592Z,86.06
2019-05-07T04:33:43.973Z,82.04
2019-05-07T04:36:43.731Z,77.86
2019-05-07T04:39:16.220Z,76.49
2019-05-07T04:42:25.202Z,72.27
2019-05-07T04:45:03.899Z,72.11
2019-05-07T04:47:43.123Z,69.28
2019-05-07T04:50:14.125Z,68.65
2019-05-07T04:52:48.015Z,66.02
2019-05-07T04:55:22.974Z,65.09
2019-05-07T04:57:56.966Z,64.79
2019-05-07T05:00:33.557Z,63.63
2019-05-07T05:03:15.723Z,62.22
2019-05-07T05:05:53.229Z,61.82
2019-05-07T05:08:27.090Z,60.00
2019-05-07T05:11:03.955Z,58.09
2019-05-07T05:13:38.228Z,57.44
2019-05-07T05:16:27.590Z,55.67
2019-05-07T05:19:02.838Z,55.69
2019-05-07T05:21:52.912Z,53.63
2019-05-07T05:24:32.998Z,51.41
2019-05-07T05:27:08.192Z,49.88
2019-05-07T05:29:43.236Z,49.40
2019-05-07T05:32:16.944Z,48.71
2019-05-07T05:34:52.028Z,47.32
2019-05-07T05:37:27.411Z,48.37
2019-05-07T05:40:08.537Z,47.12
2019-05-07T05:42:45.719Z,49.51
2019-05-07T05:45:36.110Z,50.27
2019-05-07T05:48:09.947Z,46.03
2019-05-07T05:50:54.812Z,47.21
2019-05-07T05:53:45.574Z,45.09
2019-05-07T05:56:32.599Z,45.17
2019-05-07T05:59:27.808Z,42.50
2019-05-07T06:02:12.287Z,43.13
2019-05-07T06:05:05.864Z,46.71
2019-05-07T06:07:46.259Z,44.94
2019-05-07T06:10:53.877Z,45.35
2019-05-07T06:13:41.471Z,44.55
2019-05-07T06:16:21.949Z,42.79
2019-05-07T06:19:13.121Z,44.43
2019-05-07T06:22:04.782Z,42.71
2019-05-07T06:24:49.537Z,40.96
2019-05-07T06:27:24.285Z,42.23
2019-05-07T06:29:58.205Z,41.09
2019-05-07T06:32:32.105Z,41.78
2019-05-07T06:35:07.543Z,42.59
2019-05-07T06:37:43.918Z,40.39
2019-05-07T06:40:37.903Z,41.29
2019-05-07T06:43:17.920Z,39.67
2019-05-07T06:45:55.931Z,39.03
2019-05-07T06:48:42.470Z,37.95
2019-05-07T06:51:07.249Z,38.79
2019-05-07T06:53:42.314Z,38.49
2019-05-07T06:56:17.196Z,39.84
2019-05-07T06:58:58.777Z,38.99
2019-05-07T07:01:45.237Z,38.22
2019-05-07T07:04:38.835Z,38.22
2019-05-07T07:07:27.294Z,43.98
2019-05-07T07:10:15.318Z,40.60
2019-05-07T07:12:49.012Z,38.17
2019-05-07T07:15:23.269Z,38.25
2019-05-07T07:17:58.469Z,39.93
2019-05-07T07:20:34.323Z,37.19
2019-05-07T07:23:11.824Z,36.94
2019-05-07T07:25:46.598Z,36.00
2019-05-07T07:28:21.938Z,38.33
2019-05-07T07:31:26.702Z,34.09
2019-05-07T07:34:03.737Z,36.33
2019-05-07T07:36:43.942Z,35.52
2019-05-07T07:39:19.382Z,34.43
2019-05-07T07:41:58.415Z,37.34
2019-05-07T07:44:32.995Z,37.20
2019-05-07T07:47:08.917Z,35.39
2019-05-07T07:49:42.713Z,38.29
2019-05-07T07:52:17.942Z,39.11
2019-05-07T07:54:52.913Z,39.04
2019-05-07T07:57:46.030Z,36.96
2019-05-07T08:00:32.993Z,36.08
2019-05-07T08:03:08.683Z,34.88
2019-05-07T08:05:42.878Z,35.14
2019-05-07T08:08:18.142Z,35.33
2019-05-07T08:10:53.279Z,35.65
2019-05-07T08:13:32.338Z,33.58
2019-05-07T08:16:08.102Z,36.49
2019-05-07T08:18:43.577Z,38.36
2019-05-07T08:21:17.229Z,41.58
2019-05-07T08:23:52.879Z,43.63
2019-05-07T08:26:27.989Z,41.26
2019-05-07T08:29:02.924Z,39.30
2019-05-07T08:32:02.343Z,35.30
2019-05-07T08:34:44.236Z,37.07
2019-05-07T08:37:17.997Z,38.23
2019-05-07T08:39:53.240Z,36.04
2019-05-07T08:42:27.923Z,34.84
2019-05-07T08:45:24.800Z,37.16
2019-05-07T08:47:59.363Z,36.66
2019-05-07T08:50:35.204Z,37.28
2019-05-07T08:53:09.943Z,36.16
2019-05-07T08:55:43.625Z,39.00
2019-05-07T08:58:18.584Z,42.36
2019-05-07T09:00:52.463Z,44.50
2019-05-07T09:03:44.815Z,44.27
2019-05-07T09:06:33.885Z,43.52
2019-05-07T09:09:13.551Z,40.26
2019-05-07T09:11:48.447Z,42.29
2019-05-07T09:14:26.283Z,43.45
2019-05-07T09:17:02.510Z,41.29
2019-05-07T09:19:48.284Z,38.41
2019-05-07T09:22:12.855Z,37.99
2019-05-07T09:24:49.508Z,37.69
2019-05-07T09:27:34.931Z,36.45
2019-05-07T09:30:42.034Z,36.66
2019-05-07T09:33:42.271Z,36.46
2019-05-07T09:36:25.429Z,36.47
2019-05-07T09:38:59.498Z,35.45
2019-05-07T09:41:34.377Z,36.53
2019-05-07T09:44:08.184Z,35.20
2019-05-07T09:46:43.054Z,37.55
2019-05-07T09:49:17.780Z,38.31
2019-05-07T09:51:52.085Z,36.71
2019-05-07T09:54:25.770Z,37.77
2019-05-07T09:57:01.766Z,37.44
2019-05-07T09:59:36.158Z,37.50
2019-05-07T10:02:12.103Z,38.06
2019-05-07T10:04:47.667Z,38.92
2019-05-07T10:07:22.582Z,38.32
2019-05-07T10:09:56.413Z,37.13
2019-05-07T10:12:56.197Z,37.10
2019-05-07T10:15:33.031Z,36.85
2019-05-07T10:18:14.800Z,38.00
2019-05-07T10:20:48.574Z,37.82
2019-05-07T10:23:23.230Z,37.19
2019-05-07T10:25:58.237Z,36.73
2019-05-07T10:28:32.355Z,37.76
2019-05-07T10:31:06.358Z,38.16
2019-05-07T10:33:42.137Z,37.75
2019-05-07T10:36:15.523Z,36.08
2019-05-07T10:38:51.911Z,35.73
2019-05-07T10:41:25.280Z,33.86
2019-05-07T10:43:59.519Z,34.27
2019-05-07T10:46:49.264Z,33.80
2019-05-07T10:49:28.397Z,35.70
2019-05-07T10:52:03.230Z,35.18
2019-05-07T10:54:37.854Z,33.33
2019-05-07T10:57:11.988Z,34.65
2019-05-07T10:59:47.006Z,34.33
2019-05-07T11:02:29.008Z,36.73
2019-05-07T11:05:04.095Z,34.14
2019-05-07T11:07:38.265Z,34.74
2019-05-07T11:10:12.909Z,34.75
2019-05-07T11:12:46.737Z,37.03
2019-05-07T11:15:22.097Z,36.45
2019-05-07T11:18:09.295Z,36.72
2019-05-07T11:20:49.661Z,37.12
2019-05-07T11:23:23.128Z,34.59
2019-05-07T11:25:57.013Z,34.66
2019-05-07T11:28:32.580Z,35.55
2019-05-07T11:31:09.267Z,33.93
2019-05-07T11:33:43.046Z,32.98
2019-05-07T11:36:16.908Z,35.10
2019-05-07T11:38:52.675Z,34.23
2019-05-07T11:41:42.495Z,34.38
2019-05-07T11:44:23.009Z,34.59
2019-05-07T11:47:22.465Z,35.58
2019-05-07T11:50:32.830Z,36.49
2019-05-07T11:53:19.173Z,37.64
2019-05-07T11:55:54.714Z,38.19
2019-05-07T11:58:28.729Z,37.42
2019-05-07T12:01:17.001Z,36.90
2019-05-07T12:03:53.333Z,37.22
2019-05-07T12:06:32.041Z,37.76
2019-05-07T12:09:07.878Z,37.66
2019-05-07T12:11:45.913Z,37.42
2019-05-07T12:14:30.893Z,37.60
2019-05-07T12:16:58.866Z,37.25
2019-05-07T12:19:34.292Z,37.04
2019-05-07T12:22:08.626Z,36.73
2019-05-07T12:24:45.724Z,39.05
2019-05-07T12:27:23.055Z,37.02
2019-05-07T12:29:57.831Z,36.65
2019-05-07T12:32:39.485Z,36.39
2019-05-07T12:35:15.772Z,36.81
2019-05-07T12:37:49.686Z,35.85
2019-05-07T12:40:26.041Z,35.97
2019-05-07T12:43:02.099Z,37.04
2019-05-07T12:45:37.060Z,36.56
2019-05-07T12:48:14.276Z,36.34
2019-05-07T12:50:47.559Z,37.83
2019-05-07T12:53:44.030Z,37.60
2019-05-07T12:56:19.411Z,37.71
2019-05-07T12:58:53.497Z,38.33
2019-05-07T13:01:42.659Z,38.69
2019-05-07T13:04:19.054Z,37.98
2019-05-07T13:07:02.474Z,38.01
2019-05-07T13:09:36.463Z,37.50
2019-05-07T13:12:10.512Z,37.67
2019-05-07T13:14:44.285Z,37.79
2019-05-07T13:17:18.066Z,37.38
2019-05-07T13:19:53.033Z,37.68
2019-05-07T13:22:26.730Z,37.68
2019-05-07T13:25:03.927Z,37.53
2019-05-07T13:27:40.124Z,36.82
2019-05-07T13:30:13.635Z,36.51
2019-05-07T13:32:49.303Z,35.23
2019-05-07T13:35:24.967Z,35.86
2019-05-07T13:38:17.852Z,36.51
2019-05-07T13:40:58.433Z,37.30
2019-05-07T13:43:37.924Z,35.55
2019-05-07T13:46:13.912Z,35.83
2019-05-07T13:48:48.913Z,35.02
2019-05-07T13:51:24.013Z,35.38
2019-05-07T13:53:58.246Z,36.06
2019-05-07T13:56:32.684Z,35.84
2019-05-07T13:59:06.626Z,35.18
2019-05-07T14:01:53.443Z,35.21
2019-05-07T14:04:27.195Z,34.57
2019-05-07T14:07:01.910Z,34.84
2019-05-07T14:09:35.962Z,36.42
2019-05-07T14:12:12.137Z,35.84
2019-05-07T14:14:45.619Z,35.88
2019-05-07T14:17:21.863Z,37.24
2019-05-07T14:19:56.134Z,36.75
2019-05-07T14:22:31.839Z,37.16
2019-05-07T14:25:06.140Z,37.70
2019-05-07T14:27:42.686Z,36.69
2019-05-07T14:30:19.035Z,35.45
2019-05-07T14:33:05.955Z,36.10
2019-05-07T14:36:02.557Z,35.93
2019-05-07T14:38:42.623Z,36.98
2019-05-07T14:41:16.504Z,37.85
2019-05-07T14:44:09.144Z,37.69
2019-05-07T14:46:50.729Z,37.88
2019-05-07T14:49:22.383Z,37.49
2019-05-07T14:51:55.890Z,36.81
2019-05-07T14:54:32.791Z,37.37
2019-05-07T14:57:06.476Z,36.87
2019-05-07T14:59:42.792Z,37.35
2019-05-07T15:02:17.135Z,37.13
2019-05-07T15:04:52.511Z,37.15
2019-05-07T15:07:26.926Z,38.30
2019-05-07T15:10:02.353Z,37.82
2019-05-07T15:12:36.173Z,38.32
2019-05-07T15:15:12.645Z,36.68
2019-05-07T15:18:02.128Z,38.00
2019-05-07T15:20:35.928Z,37.74
2019-05-07T15:23:32.199Z,37.32
2019-05-07T15:26:06.357Z,37.46
2019-05-07T15:28:42.012Z,38.60
2019-05-07T15:31:19.138Z,37.89
2019-05-07T15:33:52.901Z,36.05
2019-05-07T15:36:26.555Z,36.83
2019-05-07T15:39:00.265Z,35.92
2019-05-07T15:41:35.040Z,36.96
2019-05-07T15:44:09.066Z,36.55
2019-05-07T15:46:42.883Z,36.75
2019-05-07T15:49:17.892Z,37.70
2019-05-07T15:51:53.552Z,37.15
2019-05-07T15:54:27.863Z,37.54
2019-05-07T15:57:12.703Z,36.71
2019-05-07T15:59:49.907Z,37.36
2019-05-07T16:02:32.209Z,38.05
2019-05-07T16:05:07.858Z,38.11
2019-05-07T16:07:43.013Z,37.95
2019-05-07T16:10:17.320Z,39.17
2019-05-07T16:12:54.310Z,40.40
2019-05-07T16:15:29.263Z,39.27
2019-05-07T16:18:07.489Z,39.60
2019-05-07T16:20:42.861Z,40.26
2019-05-07T16:23:18.145Z,40.42
2019-05-07T16:25:52.862Z,39.71
2019-05-07T16:28:27.120Z,40.49
2019-05-07T16:31:02.573Z,39.07
2019-05-07T16:33:37.996Z,38.36
2019-05-07T16:36:13.239Z,38.54
2019-05-07T16:38:48.405Z,39.40
2019-05-07T16:41:22.491Z,38.84
2019-05-07T16:43:58.047Z,39.53
2019-05-07T16:46:33.264Z,40.06
2019-05-07T16:49:08.386Z,40.94
2019-05-07T16:51:48.289Z,40.32
2019-05-07T16:54:22.273Z,39.80
2019-05-07T16:57:19.899Z,39.79
2019-05-07T16:59:54.810Z,40.46
2019-05-07T17:02:34.792Z,39.12
2019-05-07T17:05:13.707Z,39.29
2019-05-07T17:08:15.159Z,39.92
2019-05-07T17:10:52.255Z,39.87
2019-05-07T17:13:26.872Z,39.91
2019-05-07T17:16:03.493Z,39.88
2019-05-07T17:18:37.859Z,39.99
2019-05-07T17:21:12.376Z,41.26
2019-05-07T17:23:46.672Z,41.12
2019-05-07T17:26:23.233Z,41.41
2019-05-07T17:28:57.371Z,42.45
2019-05-07T17:31:32.006Z,44.28
2019-05-07T17:34:08.036Z,43.63
2019-05-07T17:36:42.474Z,44.10
2019-05-07T17:39:17.157Z,44.81
2019-05-07T17:41:53.486Z,45.79
2019-05-07T17:44:27.403Z,46.37
2019-05-07T17:47:02.851Z,46.47
2019-05-07T17:49:37.325Z,47.57
2019-05-07T17:52:12.622Z,46.00
2019-05-07T17:54:46.492Z,46.89
2019-05-07T17:57:22.785Z,47.09
2019-05-07T17:59:56.945Z,47.42
2019-05-07T18:02:42.987Z,46.84
2019-05-07T18:05:17.839Z,45.34
2019-05-07T18:07:52.758Z,45.35
2019-05-07T18:10:27.197Z,45.39
2019-05-07T18:13:08.059Z,46.69
2019-05-07T18:15:42.804Z,47.58
2019-05-07T18:18:17.896Z,47.63
2019-05-07T18:20:53.986Z,48.94
2019-05-07T18:23:28.726Z,49.39
2019-05-07T18:26:02.692Z,49.92
2019-05-07T18:29:03.530Z,50.63
2019-05-07T18:32:05.881Z,51.13
2019-05-07T18:34:42.642Z,51.50
2019-05-07T18:37:19.527Z,52.26
2019-05-07T18:39:58.850Z,53.20
2019-05-07T18:42:34.828Z,54.27
2019-05-07T18:45:12.434Z,54.56
2019-05-07T18:47:47.963Z,55.02
2019-05-07T18:50:23.409Z,55.18
2019-05-07T18:52:57.814Z,55.63
2019-05-07T18:55:33.475Z,56.27
2019-05-07T18:58:07.458Z,57.65
2019-05-07T19:00:46.831Z,57.88
2019-05-07T19:03:21.823Z,58.33
2019-05-07T19:05:56.523Z,59.24
2019-05-07T19:08:32.625Z,59.50
2019-05-07T19:11:12.243Z,60.77
2019-05-07T19:13:46.740Z,61.14
2019-05-07T19:16:22.880Z,61.75
2019-05-07T19:18:59.559Z,62.27
2019-05-07T19:21:47.890Z,63.24
2019-05-07T19:24:25.841Z,63.13
2019-05-07T19:26:57.800Z,62.92
2019-05-07T19:29:35.774Z,63.43
2019-05-07T19:32:12.191Z,62.86
2019-05-07T19:34:47.097Z,63.82
2019-05-07T19:37:22.373Z,63.27
2019-05-07T19:39:56.314Z,63.91
2019-05-07T19:42:31.842Z,64.38
2019-05-07T19:45:07.947Z,64.98
2019-05-07T19:47:42.804Z,65.14
2019-05-07T19:50:18.115Z,65.45
2019-05-07T19:52:53.388Z,66.29
2019-05-07T19:55:32.743Z,66.51
2019-05-07T19:58:07.657Z,66.76
2019-05-07T20:00:45.214Z,67.62
2019-05-07T20:03:17.711Z,67.63
2019-05-07T20:05:52.477Z,67.67
2019-05-07T20:08:27.396Z,67.80
2019-05-07T20:11:12.047Z,67.92
2019-05-07T20:13:45.782Z,67.88
2019-05-07T20:16:22.975Z,68.10
2019-05-07T20:18:56.932Z,68.42
2019-05-07T20:21:32.681Z,69.15
2019-05-07T20:24:08.785Z,69.08
2019-05-07T20:26:45.078Z,68.82
2019-05-07T20:29:19.912Z,68.99
2019-05-07T20:31:53.958Z,69.34
2019-05-07T20:34:29.173Z,68.88
2019-05-07T20:37:04.425Z,68.78
2019-05-07T20:39:38.275Z,69.74
2019-05-07T20:42:12.532Z,70.55
2019-05-07T20:44:48.495Z,70.70
2019-05-07T20:47:22.840Z,71.56
2019-05-07T20:49:59.411Z,71.60
2019-05-07T20:52:34.172Z,71.82
2019-05-07T20:55:34.174Z,72.21
2019-05-07T20:58:12.678Z,72.31
2019-05-07T21:00:46.748Z,72.50
2019-05-07T21:03:23.709Z,72.37
2019-05-07T21:05:57.841Z,72.65
2019-05-07T21:08:32.112Z,72.69
2019-05-07T21:11:08.533Z,72.31
2019-05-07T21:13:44.572Z,72.66
2019-05-07T21:16:18.595Z,72.99
2019-05-07T21:18:54.327Z,72.91
2019-05-07T21:21:28.432Z,73.62
2019-05-07T21:24:02.296Z,73.92
2019-05-07T21:26:37.984Z,74.14
2019-05-07T21:29:13.705Z,74.25
2019-05-07T21:31:48.785Z,74.51
2019-05-07T21:34:27.733Z,74.68
2019-05-07T21:37:08.266Z,75.18
2019-05-07T21:39:42.398Z,75.84
2019-05-07T21:42:17.905Z,76.08
2019-05-07T21:44:52.679Z,76.08
2019-05-07T21:47:26.804Z,76.41
2019-05-07T21:50:02.541Z,76.03
2019-05-07T21:52:39.515Z,76.51
2019-05-07T21:55:26.238Z,76.53
2019-05-07T21:58:22.534Z,76.56
2019-05-07T22:01:05.478Z,77.12
2019-05-07T22:03:43.219Z,77.22
2019-05-07T22:06:17.364Z,77.25
2019-05-07T22:08:52.521Z,77.21
2019-05-07T22:11:28.044Z,77.33
2019-05-07T22:14:02.261Z,77.52
2019-05-07T22:16:37.024Z,78.20
2019-05-07T22:19:13.597Z,78.17
2019-05-07T22:21:52.172Z,78.21
2019-05-07T22:24:28.605Z,78.42
2019-05-07T22:27:04.290Z,78.72
2019-05-07T22:29:37.730Z,78.87
2019-05-07T22:32:30.263Z,79.16
2019-05-07T22:35:23.835Z,79.89
2019-05-07T22:37:57.966Z,80.03
2019-05-07T22:40:32.707Z,79.84
2019-05-07T22:43:06.528Z,80.08
2019-05-07T22:45:40.287Z,79.83
2019-05-07T22:48:17.480Z,79.72
2019-05-07T22:50:52.398Z,79.67
2019-05-07T22:53:27.133Z,79.67
2019-05-07T22:56:03.180Z,79.62
2019-05-07T22:58:45.452Z,79.82
2019-05-07T23:01:19.366Z,80.39
2019-05-07T23:03:54.023Z,80.11
2019-05-07T23:06:27.751Z,80.48
2019-05-07T23:09:01.988Z,81.04
2019-05-07T23:11:35.865Z,81.15
2019-05-07T23:14:11.921Z,81.28
2019-05-07T23:16:48.735Z,81.33
2019-05-07T23:19:23.633Z,81.50
2019-05-07T23:21:58.314Z,81.33
2019-05-07T23:24:32.580Z,81.47
2019-05-07T23:27:06.177Z,81.68
2019-05-07T23:29:42.029Z,82.11
2019-05-07T23:32:15.567Z,82.33
2019-05-07T23:34:49.652Z,82.47
2019-05-07T23:37:23.564Z,83.12
2019-05-07T23:39:59.648Z,83.57
2019-05-07T23:42:42.399Z,83.52
2019-05-07T23:45:16.589Z,83.13
2019-05-07T23:47:51.906Z,83.27
2019-05-07T23:50:25.813Z,82.89
2019-05-07T23:53:02.134Z,82.60
2019-05-07T23:55:35.464Z,83.00
2019-05-07T23:58:13.879Z,82.95
